DAL1381 KATL-KCAE
Flight info
| Callsign | DAL1381 |
|---|---|
| Flight time | 0h 37m |
| Altitude | 25000 |
| Route | GAIRY2 IRQ |
| Aircraft | B739/M-VGDW/C |
Departure
| Time | 2026-05-03 23:08 |
|---|---|
| Airport | Hartsfield Jackson Atlanta International Airport (KATL) |
Arrival
| Time | 2026-05-03 23:45 |
|---|---|
| Airport | Columbia Metropolitan Airport (KCAE) |
| Time | Latitude | Longitude | Altitude | Speed | Heading |
|---|---|---|---|---|---|
| 2026-05-03 22:49 | 33.64050 | -84.42989 | 1005 ft | 0 kts | 112° |
| 2026-05-03 22:57 | 33.64052 | -84.42994 | 1005 ft | 2 kts | 112° |
| 2026-05-03 22:58 | 33.64058 | -84.43012 | 1005 ft | 2 kts | 112° |
| 2026-05-03 22:58 | 33.64064 | -84.43030 | 1005 ft | 2 kts | 112° |
| 2026-05-03 22:58 | 33.64070 | -84.43048 | 1005 ft | 2 kts | 112° |
| 2026-05-03 22:58 | 33.64078 | -84.43064 | 1005 ft | 2 kts | 159° |
| 2026-05-03 22:59 | 33.64086 | -84.43067 | 1005 ft | 2 kts | 173° |
| 2026-05-03 22:59 | 33.64074 | -84.43066 | 1005 ft | 0 kts | 174° |
| 2026-05-03 23:00 | 33.64028 | -84.43062 | 1005 ft | 9 kts | 179° |
| 2026-05-03 23:01 | 33.63970 | -84.43062 | 1005 ft | 8 kts | 179° |
| 2026-05-03 23:01 | 33.63912 | -84.43064 | 1005 ft | 8 kts | 180° |
| 2026-05-03 23:01 | 33.63893 | -84.43064 | 1005 ft | 0 kts | 180° |
| 2026-05-03 23:02 | 33.63890 | -84.43064 | 1005 ft | 1 kts | 180° |
| 2026-05-03 23:02 | 33.63862 | -84.43064 | 1005 ft | 8 kts | 181° |
| 2026-05-03 23:02 | 33.63808 | -84.43065 | 1005 ft | 7 kts | 180° |
| 2026-05-03 23:03 | 33.63756 | -84.43065 | 1005 ft | 10 kts | 179° |
| 2026-05-03 23:03 | 33.63680 | -84.43050 | 1005 ft | 12 kts | 141° |
| 2026-05-03 23:03 | 33.63663 | -84.42960 | 1005 ft | 11 kts | 89° |
| 2026-05-03 23:03 | 33.63664 | -84.42867 | 1005 ft | 11 kts | 90° |
| 2026-05-03 23:04 | 33.63663 | -84.42776 | 1005 ft | 11 kts | 92° |
| 2026-05-03 23:04 | 33.63655 | -84.42662 | 1006 ft | 20 kts | 89° |
| 2026-05-03 23:04 | 33.63655 | -84.42482 | 1006 ft | 21 kts | 90° |
| 2026-05-03 23:04 | 33.63654 | -84.42314 | 1006 ft | 20 kts | 90° |
| 2026-05-03 23:05 | 33.63655 | -84.42146 | 1006 ft | 20 kts | 89° |
| 2026-05-03 23:05 | 33.63658 | -84.41984 | 1005 ft | 19 kts | 89° |
| 2026-05-03 23:05 | 33.63657 | -84.41825 | 1005 ft | 20 kts | 87° |
| 2026-05-03 23:05 | 33.63654 | -84.41624 | 1005 ft | 24 kts | 91° |
| 2026-05-03 23:06 | 33.63655 | -84.41427 | 1005 ft | 23 kts | 90° |
| 2026-05-03 23:06 | 33.63655 | -84.41238 | 1005 ft | 22 kts | 90° |
| 2026-05-03 23:06 | 33.63655 | -84.41055 | 1005 ft | 22 kts | 90° |
| 2026-05-03 23:06 | 33.63616 | -84.40911 | 1005 ft | 19 kts | 176° |
| 2026-05-03 23:07 | 33.63492 | -84.40923 | 1006 ft | 18 kts | 214° |
| 2026-05-03 23:07 | 33.63470 | -84.41004 | 1005 ft | 0 kts | 271° |
| 2026-05-03 23:07 | 33.63471 | -84.41052 | 1005 ft | 27 kts | 271° |
| 2026-05-03 23:07 | 33.63472 | -84.41591 | 1004 ft | 99 kts | 271° |
| 2026-05-03 23:08 | 33.63463 | -84.42672 | 1007 ft | 156 kts | 270° |
| 2026-05-03 23:08 | 33.63490 | -84.44072 | 1429 ft | 170 kts | 272° |
| 2026-05-03 23:08 | 33.63491 | -84.45545 | 2111 ft | 177 kts | 271° |
| 2026-05-03 23:08 | 33.63360 | -84.47115 | 2438 ft | 208 kts | 257° |
| 2026-05-03 23:09 | 33.62848 | -84.48857 | 2695 ft | 237 kts | 247° |
| 2026-05-03 23:09 | 33.62085 | -84.50704 | 2948 ft | 255 kts | 244° |
| 2026-05-03 23:09 | 33.61293 | -84.52561 | 3526 ft | 261 kts | 244° |
| 2026-05-03 23:09 | 33.60474 | -84.54501 | 4362 ft | 261 kts | 244° |
| 2026-05-03 23:10 | 33.59624 | -84.56432 | 5207 ft | 261 kts | 237° |
| 2026-05-03 23:10 | 33.58257 | -84.57917 | 5768 ft | 274 kts | 206° |
| 2026-05-03 23:10 | 33.56438 | -84.58520 | 6459 ft | 280 kts | 186° |
| 2026-05-03 23:10 | 33.54461 | -84.58583 | 7064 ft | 286 kts | 180° |
| 2026-05-03 23:11 | 33.52457 | -84.58535 | 7764 ft | 288 kts | 180° |
| 2026-05-03 23:11 | 33.50453 | -84.58496 | 8457 ft | 291 kts | 181° |
| 2026-05-03 23:11 | 33.48452 | -84.58144 | 9068 ft | 298 kts | 158° |
| 2026-05-03 23:11 | 33.46752 | -84.56716 | 9700 ft | 302 kts | 129° |
| 2026-05-03 23:12 | 33.45774 | -84.54488 | 10251 ft | 307 kts | 102° |
| 2026-05-03 23:12 | 33.45555 | -84.52006 | 10436 ft | 323 kts | 89° |
| 2026-05-03 23:12 | 33.45563 | -84.49213 | 10588 ft | 343 kts | 88° |
| 2026-05-03 23:12 | 33.45600 | -84.46258 | 10746 ft | 363 kts | 88° |
| 2026-05-03 23:13 | 33.45623 | -84.43193 | 10885 ft | 381 kts | 88° |
| 2026-05-03 23:13 | 33.45623 | -84.39960 | 11115 ft | 394 kts | 89° |
| 2026-05-03 23:13 | 33.45606 | -84.36638 | 11619 ft | 399 kts | 89° |
| 2026-05-03 23:13 | 33.45588 | -84.33336 | 12175 ft | 402 kts | 88° |
| 2026-05-03 23:14 | 33.45716 | -84.29981 | 12721 ft | 404 kts | 84° |
| 2026-05-03 23:14 | 33.45988 | -84.26607 | 13231 ft | 408 kts | 83° |
| 2026-05-03 23:14 | 33.46305 | -84.23200 | 13733 ft | 412 kts | 82° |
| 2026-05-03 23:14 | 33.46624 | -84.19773 | 14216 ft | 416 kts | 83° |
| 2026-05-03 23:15 | 33.46929 | -84.16349 | 14678 ft | 419 kts | 83° |
| 2026-05-03 23:15 | 33.47224 | -84.12856 | 15141 ft | 422 kts | 83° |
| 2026-05-03 23:15 | 33.47510 | -84.09335 | 15622 ft | 425 kts | 84° |
| 2026-05-03 23:15 | 33.47787 | -84.05830 | 16051 ft | 427 kts | 84° |
| 2026-05-03 23:16 | 33.48067 | -84.02250 | 16517 ft | 430 kts | 84° |
| 2026-05-03 23:16 | 33.48344 | -83.98667 | 16957 ft | 433 kts | 84° |
| 2026-05-03 23:16 | 33.48622 | -83.95060 | 17380 ft | 437 kts | 84° |
| 2026-05-03 23:16 | 33.48900 | -83.91448 | 17867 ft | 439 kts | 84° |
| 2026-05-03 23:17 | 33.49182 | -83.87771 | 18372 ft | 441 kts | 84° |
| 2026-05-03 23:17 | 33.49461 | -83.84114 | 18896 ft | 441 kts | 84° |
| 2026-05-03 23:17 | 33.49738 | -83.80477 | 19088 ft | 446 kts | 84° |
| 2026-05-03 23:17 | 33.50022 | -83.76746 | 19094 ft | 455 kts | 84° |
| 2026-05-03 23:18 | 33.50312 | -83.72911 | 19105 ft | 463 kts | 84° |
| 2026-05-03 23:18 | 33.50602 | -83.69064 | 19112 ft | 469 kts | 84° |
| 2026-05-03 23:18 | 33.50896 | -83.65141 | 19097 ft | 469 kts | 84° |
| 2026-05-03 23:18 | 33.51238 | -83.61313 | 19090 ft | 466 kts | 82° |
| 2026-05-03 23:19 | 33.51727 | -83.57467 | 19107 ft | 464 kts | 80° |
| 2026-05-03 23:19 | 33.52283 | -83.53653 | 19107 ft | 463 kts | 79° |
| 2026-05-03 23:19 | 33.52856 | -83.49845 | 19101 ft | 463 kts | 79° |
| 2026-05-03 23:19 | 33.53419 | -83.46073 | 19104 ft | 464 kts | 79° |
| 2026-05-03 23:20 | 33.53975 | -83.42256 | 19103 ft | 465 kts | 79° |
| 2026-05-03 23:20 | 33.54520 | -83.38421 | 19102 ft | 466 kts | 80° |
| 2026-05-03 23:20 | 33.55054 | -83.34596 | 19104 ft | 467 kts | 80° |
| 2026-05-03 23:20 | 33.55579 | -83.30781 | 19102 ft | 467 kts | 80° |
| 2026-05-03 23:21 | 33.56104 | -83.26942 | 19101 ft | 468 kts | 80° |
| 2026-05-03 23:21 | 33.56632 | -83.23074 | 19101 ft | 468 kts | 80° |
| 2026-05-03 23:21 | 33.57151 | -83.19254 | 19101 ft | 468 kts | 80° |
| 2026-05-03 23:21 | 33.57676 | -83.15389 | 19099 ft | 467 kts | 80° |
| 2026-05-03 23:22 | 33.58545 | -83.08977 | 19100 ft | 467 kts | 80° |
| 2026-05-03 23:22 | 33.59066 | -83.05123 | 19102 ft | 467 kts | 80° |
| 2026-05-03 23:22 | 33.59588 | -83.01246 | 19102 ft | 467 kts | 80° |
| 2026-05-03 23:23 | 33.60100 | -82.97444 | 19101 ft | 467 kts | 80° |
| 2026-05-03 23:23 | 33.60620 | -82.93568 | 19100 ft | 468 kts | 80° |
| 2026-05-03 23:23 | 33.61131 | -82.89751 | 19098 ft | 468 kts | 80° |
| 2026-05-03 23:23 | 33.61647 | -82.85888 | 19099 ft | 468 kts | 80° |
| 2026-05-03 23:24 | 33.62161 | -82.82030 | 19099 ft | 468 kts | 81° |
| 2026-05-03 23:24 | 33.62673 | -82.78177 | 19117 ft | 468 kts | 81° |
| 2026-05-03 23:24 | 33.63187 | -82.74300 | 19121 ft | 468 kts | 81° |
| 2026-05-03 23:24 | 33.63691 | -82.70489 | 19131 ft | 468 kts | 81° |
| 2026-05-03 23:25 | 33.64204 | -82.66596 | 19133 ft | 469 kts | 81° |
| 2026-05-03 23:25 | 33.64706 | -82.62782 | 19134 ft | 469 kts | 81° |
| 2026-05-03 23:25 | 33.65215 | -82.58905 | 19139 ft | 469 kts | 81° |
| 2026-05-03 23:25 | 33.65724 | -82.55017 | 19141 ft | 470 kts | 81° |
| 2026-05-03 23:26 | 33.66232 | -82.51130 | 19129 ft | 470 kts | 81° |
| 2026-05-03 23:26 | 33.66737 | -82.47249 | 19096 ft | 470 kts | 81° |
| 2026-05-03 23:26 | 33.67242 | -82.43368 | 19096 ft | 470 kts | 81° |
| 2026-05-03 23:26 | 33.67737 | -82.39550 | 19094 ft | 470 kts | 81° |
| 2026-05-03 23:27 | 33.68236 | -82.35685 | 19072 ft | 459 kts | 81° |
| 2026-05-03 23:27 | 33.68711 | -82.32003 | 19077 ft | 441 kts | 81° |
| 2026-05-03 23:27 | 33.69171 | -82.28422 | 19023 ft | 428 kts | 81° |
| 2026-05-03 23:27 | 33.69629 | -82.24858 | 18340 ft | 432 kts | 81° |
| 2026-05-03 23:28 | 33.70087 | -82.21287 | 17672 ft | 431 kts | 81° |
| 2026-05-03 23:28 | 33.70535 | -82.17779 | 17131 ft | 427 kts | 81° |
| 2026-05-03 23:28 | 33.70996 | -82.14272 | 16619 ft | 422 kts | 79° |
| 2026-05-03 23:28 | 33.71514 | -82.10816 | 16115 ft | 417 kts | 78° |
| 2026-05-03 23:29 | 33.72059 | -82.07391 | 15593 ft | 413 kts | 78° |
| 2026-05-03 23:29 | 33.72604 | -82.04010 | 15079 ft | 410 kts | 78° |
| 2026-05-03 23:29 | 33.73134 | -82.00712 | 14581 ft | 406 kts | 78° |
| 2026-05-03 23:29 | 33.73663 | -81.97377 | 14077 ft | 403 kts | 78° |
| 2026-05-03 23:30 | 33.74180 | -81.94087 | 13764 ft | 394 kts | 78° |
| 2026-05-03 23:30 | 33.74675 | -81.90906 | 13490 ft | 385 kts | 78° |
| 2026-05-03 23:30 | 33.75160 | -81.87773 | 13229 ft | 380 kts | 78° |
| 2026-05-03 23:30 | 33.75642 | -81.84655 | 12975 ft | 379 kts | 78° |
| 2026-05-03 23:31 | 33.76125 | -81.81525 | 12721 ft | 379 kts | 78° |
| 2026-05-03 23:31 | 33.76591 | -81.78447 | 12465 ft | 378 kts | 79° |
| 2026-05-03 23:31 | 33.77008 | -81.75334 | 12210 ft | 376 kts | 79° |
| 2026-05-03 23:31 | 33.77396 | -81.72241 | 11963 ft | 375 kts | 80° |
| 2026-05-03 23:32 | 33.77776 | -81.69167 | 11708 ft | 373 kts | 80° |
| 2026-05-03 23:32 | 33.78157 | -81.66088 | 11473 ft | 372 kts | 80° |
| 2026-05-03 23:32 | 33.78543 | -81.63002 | 11227 ft | 371 kts | 79° |
| 2026-05-03 23:32 | 33.78926 | -81.59956 | 11071 ft | 372 kts | 79° |
| 2026-05-03 23:33 | 33.79304 | -81.56953 | 11017 ft | 370 kts | 79° |
| 2026-05-03 23:33 | 33.79693 | -81.53877 | 10685 ft | 371 kts | 79° |
| 2026-05-03 23:33 | 33.80073 | -81.50863 | 10323 ft | 363 kts | 79° |
| 2026-05-03 23:33 | 33.80443 | -81.47913 | 9945 ft | 350 kts | 79° |
| 2026-05-03 23:34 | 33.80802 | -81.45050 | 9562 ft | 338 kts | 79° |
| 2026-05-03 23:34 | 33.81141 | -81.42344 | 9303 ft | 323 kts | 79° |
| 2026-05-03 23:34 | 33.81471 | -81.39712 | 9023 ft | 311 kts | 79° |
| 2026-05-03 23:34 | 33.81784 | -81.37215 | 8657 ft | 303 kts | 79° |
| 2026-05-03 23:35 | 33.82095 | -81.34729 | 8319 ft | 295 kts | 80° |
| 2026-05-03 23:35 | 33.82387 | -81.32393 | 8074 ft | 285 kts | 80° |
| 2026-05-03 23:35 | 33.82701 | -81.30086 | 7799 ft | 274 kts | 71° |
| 2026-05-03 23:35 | 33.83593 | -81.28181 | 7528 ft | 260 kts | 42° |
| 2026-05-03 23:36 | 33.85063 | -81.27084 | 7309 ft | 240 kts | 12° |
| 2026-05-03 23:36 | 33.86651 | -81.27058 | 7077 ft | 224 kts | 340° |
| 2026-05-03 23:36 | 33.87895 | -81.28015 | 6835 ft | 213 kts | 307° |
| 2026-05-03 23:36 | 33.88506 | -81.29624 | 6433 ft | 216 kts | 283° |
| 2026-05-03 23:37 | 33.88830 | -81.31392 | 5938 ft | 220 kts | 282° |
| 2026-05-03 23:37 | 33.89171 | -81.33205 | 5418 ft | 221 kts | 282° |
| 2026-05-03 23:37 | 33.89523 | -81.35022 | 4716 ft | 229 kts | 282° |
| 2026-05-03 23:37 | 33.89898 | -81.36923 | 3971 ft | 237 kts | 282° |
| 2026-05-03 23:38 | 33.90283 | -81.38890 | 3249 ft | 242 kts | 283° |
| 2026-05-03 23:38 | 33.90665 | -81.40842 | 2560 ft | 245 kts | 282° |
| 2026-05-03 23:38 | 33.91072 | -81.42775 | 2275 ft | 229 kts | 289° |
| 2026-05-03 23:38 | 33.91953 | -81.44266 | 2096 ft | 214 kts | 322° |
| 2026-05-03 23:39 | 33.93302 | -81.44816 | 2016 ft | 207 kts | 359° |
| 2026-05-03 23:39 | 33.94630 | -81.44319 | 2003 ft | 197 kts | 32° |
| 2026-05-03 23:39 | 33.95730 | -81.43404 | 2013 ft | 196 kts | 33° |
| 2026-05-03 23:39 | 33.96852 | -81.42489 | 2006 ft | 194 kts | 32° |
| 2026-05-03 23:40 | 33.97806 | -81.41377 | 1982 ft | 194 kts | 64° |
| 2026-05-03 23:40 | 33.98293 | -81.39883 | 2004 ft | 193 kts | 72° |
| 2026-05-03 23:40 | 33.98714 | -81.38331 | 2013 ft | 196 kts | 72° |
| 2026-05-03 23:40 | 33.99125 | -81.36784 | 2007 ft | 195 kts | 72° |
| 2026-05-03 23:41 | 33.99297 | -81.35188 | 1993 ft | 189 kts | 102° |
| 2026-05-03 23:41 | 33.98926 | -81.33685 | 1995 ft | 190 kts | 110° |
| 2026-05-03 23:41 | 33.98519 | -81.32156 | 2003 ft | 192 kts | 109° |
| 2026-05-03 23:41 | 33.98127 | -81.30676 | 2034 ft | 179 kts | 109° |
| 2026-05-03 23:42 | 33.97772 | -81.29277 | 1995 ft | 173 kts | 107° |
| 2026-05-03 23:42 | 33.97439 | -81.27885 | 2054 ft | 172 kts | 108° |
| 2026-05-03 23:42 | 33.97129 | -81.26480 | 2009 ft | 174 kts | 106° |
| 2026-05-03 23:42 | 33.96838 | -81.25093 | 2034 ft | 171 kts | 105° |
| 2026-05-03 23:43 | 33.96576 | -81.23672 | 1900 ft | 178 kts | 104° |
| 2026-05-03 23:43 | 33.96308 | -81.22239 | 1679 ft | 169 kts | 105° |
| 2026-05-03 23:43 | 33.96034 | -81.20937 | 1473 ft | 152 kts | 108° |
| 2026-05-03 23:43 | 33.95768 | -81.19736 | 1202 ft | 148 kts | 108° |
| 2026-05-03 23:44 | 33.95462 | -81.18545 | 1055 ft | 153 kts | 107° |
| 2026-05-03 23:44 | 33.95193 | -81.17305 | 888 ft | 154 kts | 104° |
| 2026-05-03 23:44 | 33.94937 | -81.16102 | 579 ft | 145 kts | 103° |
| 2026-05-03 23:44 | 33.94669 | -81.14959 | 424 ft | 144 kts | 99° |
| 2026-05-03 23:45 | 33.94399 | -81.13744 | 280 ft | 148 kts | 104° |
| 2026-05-03 23:45 | 33.94172 | -81.12664 | 228 ft | 117 kts | 105° |
| 2026-05-03 23:45 | 33.94003 | -81.11877 | 225 ft | 75 kts | 104° |
| 2026-05-03 23:45 | 33.93950 | -81.11610 | 230 ft | 1 kts | 68° |
| 2026-05-03 23:46 | 33.93956 | -81.11604 | 229 ft | 1 kts | 33° |
| 2026-05-03 23:46 | 33.93994 | -81.11588 | 228 ft | 11 kts | 14° |
| 2026-05-03 23:46 | 33.94073 | -81.11564 | 227 ft | 12 kts | 14° |
| 2026-05-03 23:46 | 33.94139 | -81.11601 | 228 ft | 12 kts | 289° |
| 2026-05-03 23:47 | 33.94160 | -81.11697 | 228 ft | 12 kts | 284° |
| 2026-05-03 23:47 | 33.94181 | -81.11790 | 227 ft | 11 kts | 286° |
| 2026-05-03 23:47 | 33.94202 | -81.11881 | 228 ft | 11 kts | 284° |
| 2026-05-03 23:47 | 33.94221 | -81.11968 | 228 ft | 11 kts | 284° |
| 2026-05-03 23:48 | 33.94240 | -81.12054 | 227 ft | 10 kts | 284° |
| 2026-05-03 23:48 | 33.94258 | -81.12137 | 228 ft | 10 kts | 285° |
| 2026-05-03 23:48 | 33.94276 | -81.12219 | 229 ft | 10 kts | 284° |
| 2026-05-03 23:48 | 33.94293 | -81.12296 | 228 ft | 10 kts | 284° |
| 2026-05-03 23:49 | 33.94329 | -81.12358 | 227 ft | 9 kts | 334° |
| 2026-05-03 23:49 | 33.94385 | -81.12394 | 227 ft | 9 kts | 329° |
| 2026-05-03 23:49 | 33.94437 | -81.12435 | 227 ft | 9 kts | 326° |
| 2026-05-03 23:49 | 33.94465 | -81.12458 | 227 ft | 0 kts | 327° |